Time;durP1;ratioP1;P1;durP2;ratioP2;P2;SDS_P1;SDS_P2;PMS_P1;PMS_P2;Temp;Humidity;BMP_temperature;BMP_pressure;BME280_temperature;BME280_humidity;BME280_pressure;Samples;Min_cycle;Max_cycle;Signal;HPM_P1;HPM_P2
2022/03/20 00:00:22;;;;;;;10.83;6.20;;;4.90;99.90;;;;;;5000864;28;20301;-85
2022/03/20 00:02:49;;;;;;;12.40;6.93;;;4.90;99.90;;;;;;4992757;28;20216;-81
2022/03/20 00:05:17;;;;;;;10.23;6.17;;;4.90;99.90;;;;;;4997567;28;20207;-84
2022/03/20 00:07:46;;;;;;;11.43;6.20;;;4.90;99.90;;;;;;4993734;28;20238;-83
2022/03/20 00:10:14;;;;;;;10.13;6.40;;;4.90;99.90;;;;;;4999958;28;20202;-82
2022/03/20 00:12:41;;;;;;;12.60;6.93;;;4.90;99.90;;;;;;5001765;28;20220;-82
2022/03/20 00:15:09;;;;;;;12.97;6.90;;;4.90;99.90;;;;;;5000713;28;20223;-82
2022/03/20 00:17:37;;;;;;;10.27;6.70;;;4.90;99.90;;;;;;5004677;28;20207;-81
2022/03/20 00:20:04;;;;;;;14.90;7.07;;;4.90;99.90;;;;;;5000529;28;20246;-81
2022/03/20 00:22:31;;;;;;;14.53;7.47;;;4.80;99.90;;;;;;4987615;28;20308;-82
2022/03/20 00:24:58;;;;;;;12.93;7.77;;;4.80;99.90;;;;;;4998878;28;20216;-82
2022/03/20 00:27:26;;;;;;;11.83;7.57;;;4.80;99.90;;;;;;5003074;28;20240;-83
2022/03/20 00:29:54;;;;;;;9.80;7.27;;;4.80;99.90;;;;;;4979379;28;20203;-81
2022/03/20 00:32:22;;;;;;;12.73;7.27;;;4.80;99.90;;;;;;5003056;28;20360;-81
2022/03/20 00:34:49;;;;;;;13.13;7.20;;;4.80;99.90;;;;;;4993233;28;20735;-81
2022/03/20 00:37:15;;;;;;;12.23;7.03;;;4.70;99.90;;;;;;4999022;28;20311;-81
2022/03/20 00:39:42;;;;;;;14.90;7.43;;;4.70;99.90;;;;;;5003548;28;20247;-81
2022/03/20 00:42:09;;;;;;;13.17;7.67;;;4.70;99.90;;;;;;5005283;28;20221;-82
2022/03/20 00:44:36;;;;;;;16.90;8.23;;;4.70;99.90;;;;;;4989582;28;20273;-82
2022/03/20 00:47:04;;;;;;;11.50;6.70;;;4.60;99.90;;;;;;5001147;28;20235;-82
2022/03/20 00:49:31;;;;;;;12.50;7.30;;;4.60;99.90;;;;;;5003498;28;20342;-82
2022/03/20 00:51:58;;;;;;;12.87;7.00;;;4.60;99.90;;;;;;5003579;28;20642;-81
2022/03/20 00:54:25;;;;;;;16.77;7.00;;;4.50;99.90;;;;;;5001459;28;20215;-82
2022/03/20 00:56:52;;;;;;;14.70;6.80;;;4.50;99.90;;;;;;5004193;28;20212;-81
2022/03/20 00:59:19;;;;;;;12.47;6.87;;;4.50;99.90;;;;;;4990540;28;20314;-82
2022/03/20 01:01:46;;;;;;;9.47;6.30;;;4.50;99.90;;;;;;5004573;28;20235;-83
2022/03/20 01:04:13;;;;;;;13.30;7.27;;;4.50;99.90;;;;;;5005105;28;20196;-81
2022/03/20 01:06:40;;;;;;;14.43;6.60;;;4.50;99.90;;;;;;5004375;28;20310;-81
2022/03/20 01:09:07;;;;;;;13.77;6.60;;;4.40;99.90;;;;;;5004940;28;20298;-82
2022/03/20 01:11:35;;;;;;;11.37;6.60;;;4.40;99.90;;;;;;5006954;28;20281;-81
2022/03/20 01:14:01;;;;;;;11.73;7.03;;;4.40;99.90;;;;;;4993109;28;20321;-80
2022/03/20 01:16:29;;;;;;;11.77;6.50;;;4.40;99.90;;;;;;5004026;28;20661;-82
2022/03/20 01:18:56;;;;;;;10.93;7.13;;;4.40;99.90;;;;;;5005755;28;20210;-82
2022/03/20 01:21:23;;;;;;;11.77;6.83;;;4.30;99.90;;;;;;4993061;28;20338;-81
2022/03/20 01:23:50;;;;;;;13.70;6.33;;;4.30;99.90;;;;;;5003232;28;20220;-83
2022/03/20 01:26:16;;;;;;;10.37;6.67;;;4.30;99.90;;;;;;5003964;28;20205;-82
2022/03/20 01:28:43;;;;;;;13.40;6.30;;;4.30;99.90;;;;;;4985399;28;20433;-81
2022/03/20 01:31:10;;;;;;;13.13;7.50;;;4.30;99.90;;;;;;4989738;28;20320;-82
2022/03/20 01:33:37;;;;;;;10.90;6.83;;;4.30;99.90;;;;;;5005816;28;20334;-81
2022/03/20 01:36:04;;;;;;;12.20;6.57;;;4.30;99.90;;;;;;5000477;28;20320;-80
2022/03/20 01:38:31;;;;;;;13.07;6.53;;;4.30;99.90;;;;;;4990601;28;21589;-81
2022/03/20 01:41:00;;;;;;;10.20;6.13;;;4.20;99.90;;;;;;5006285;28;20273;-81
2022/03/20 01:43:27;;;;;;;16.47;6.93;;;4.20;99.90;;;;;;5010318;28;20705;-81
2022/03/20 01:45:54;;;;;;;10.53;6.00;;;4.20;99.90;;;;;;5002034;28;20225;-80
2022/03/20 01:48:21;;;;;;;8.40;5.77;;;4.20;99.90;;;;;;4989270;28;20233;-81
2022/03/20 01:50:48;;;;;;;16.13;7.07;;;4.10;99.90;;;;;;5004134;28;20663;-82
2022/03/20 01:53:19;;;;;;;8.70;6.07;;;4.20;99.90;;;;;;5005031;28;20310;-82
2022/03/20 01:55:46;;;;;;;11.57;6.30;;;4.10;99.90;;;;;;5000887;28;20209;-81
2022/03/20 01:58:17;;;;;;;13.67;6.53;;;4.10;99.90;;;;;;5011359;28;20214;-84
2022/03/20 02:00:44;;;;;;;10.40;6.23;;;4.10;99.90;;;;;;4986012;28;20215;-82
2022/03/20 02:03:11;;;;;;;12.40;6.80;;;4.10;99.90;;;;;;5007571;28;20215;-82
2022/03/20 02:05:38;;;;;;;13.37;6.57;;;4.10;99.90;;;;;;5001205;28;20703;-83
2022/03/20 02:08:05;;;;;;;12.87;7.37;;;4.10;99.90;;;;;;5000956;28;20231;-83
2022/03/20 02:10:35;;;;;;;12.33;6.17;;;4.10;99.90;;;;;;4997797;28;20203;-82
2022/03/20 02:13:03;;;;;;;16.20;7.47;;;4.10;99.90;;;;;;5006761;28;20591;-80
2022/03/20 02:15:31;;;;;;;11.60;7.50;;;4.10;99.90;;;;;;4992115;28;20218;-81
2022/03/20 02:17:58;;;;;;;14.90;7.57;;;4.10;99.90;;;;;;4992699;28;20284;-81
2022/03/20 02:20:25;;;;;;;11.67;7.60;;;4.00;99.90;;;;;;5008538;28;21465;-82
2022/03/20 02:22:52;;;;;;;13.33;7.67;;;4.00;99.90;;;;;;5003595;28;20218;-81
2022/03/20 02:25:19;;;;;;;13.23;7.70;;;4.00;99.90;;;;;;5004643;28;20564;-83
2022/03/20 02:27:46;;;;;;;15.67;8.13;;;4.10;99.90;;;;;;5005433;28;20345;-81
2022/03/20 02:30:16;;;;;;;16.77;8.63;;;4.10;99.90;;;;;;5005719;28;20224;-82
2022/03/20 02:32:49;;;;;;;13.63;6.97;;;4.00;99.90;;;;;;5004260;28;20211;-83
2022/03/20 02:35:18;;;;;;;14.57;8.10;;;4.00;99.90;;;;;;5001363;28;20553;-82
2022/03/20 02:37:51;;;;;;;16.47;8.80;;;4.00;99.90;;;;;;4985431;28;20254;-82
2022/03/20 02:40:21;;;;;;;14.87;8.63;;;4.00;99.90;;;;;;4989446;28;20195;-81
2022/03/20 02:42:49;;;;;;;19.17;9.17;;;4.00;99.90;;;;;;5001522;28;20294;-82
2022/03/20 02:45:20;;;;;;;15.80;8.73;;;4.00;99.90;;;;;;5001920;28;20229;-81
2022/03/20 02:47:49;;;;;;;17.90;9.37;;;4.00;99.90;;;;;;5007336;28;20631;-82
2022/03/20 02:50:24;;;;;;;16.67;9.60;;;4.00;99.90;;;;;;5005684;28;20235;-81
2022/03/20 02:52:52;;;;;;;18.80;9.03;;;3.90;99.90;;;;;;5004530;28;20574;-82
2022/03/20 02:55:26;;;;;;;16.40;9.10;;;3.90;99.90;;;;;;5002770;28;20226;-81
2022/03/20 02:57:55;;;;;;;15.80;8.97;;;3.90;99.90;;;;;;5008707;28;20541;-79
2022/03/20 03:00:26;;;;;;;18.43;9.73;;;4.00;99.90;;;;;;4999162;28;20631;-83
2022/03/20 03:02:54;;;;;;;16.37;10.30;;;3.90;99.90;;;;;;4990045;28;20303;-82
2022/03/20 03:05:25;;;;;;;15.47;10.03;;;4.00;99.90;;;;;;5000800;28;20215;-82
2022/03/20 03:10:57;;;;;;;14.87;8.90;;;3.90;99.90;;;;;;5000357;28;20204;-82
2022/03/20 03:13:35;;;;;;;17.80;9.93;;;4.00;99.90;;;;;;4987772;28;20215;-82
2022/03/20 03:16:07;;;;;;;22.23;10.83;;;3.90;99.90;;;;;;4998580;28;20311;-81
2022/03/20 03:18:36;;;;;;;16.60;9.57;;;3.90;99.90;;;;;;5002311;28;20268;-82
2022/03/20 03:21:04;;;;;;;18.37;9.90;;;3.90;99.90;;;;;;4991422;28;20233;-81
2022/03/20 03:23:31;;;;;;;23.03;10.17;;;3.80;99.90;;;;;;5005157;28;20475;-81
2022/03/20 03:25:58;;;;;;;20.00;10.77;;;3.80;99.90;;;;;;4999115;28;20210;-81
2022/03/20 03:28:33;;;;;;;23.97;11.40;;;3.80;99.90;;;;;;5003201;28;20245;-81
2022/03/20 03:31:03;;;;;;;20.50;10.47;;;3.80;99.90;;;;;;4990093;28;20693;-81
2022/03/20 03:33:30;;;;;;;26.87;10.73;;;3.80;99.90;;;;;;4991057;28;20618;-81
2022/03/20 03:35:57;;;;;;;21.70;10.87;;;3.80;99.90;;;;;;5007245;28;20606;-82
2022/03/20 03:38:27;;;;;;;22.97;11.10;;;3.80;99.90;;;;;;5005702;28;20203;-81
2022/03/20 03:40:56;;;;;;;22.00;11.57;;;3.70;99.90;;;;;;5001681;28;20293;-81
2022/03/20 03:43:23;;;;;;;17.93;10.70;;;3.70;99.90;;;;;;5005887;28;20199;-82
2022/03/20 03:45:53;;;;;;;25.50;11.77;;;3.70;99.90;;;;;;4998996;28;20226;-81
2022/03/20 03:48:20;;;;;;;21.90;11.43;;;3.70;99.90;;;;;;5007358;28;20307;-81
2022/03/20 03:50:50;;;;;;;21.33;11.57;;;3.70;99.90;;;;;;5001314;28;20261;-81
2022/03/20 03:53:17;;;;;;;22.03;11.30;;;3.60;99.90;;;;;;4989278;28;20238;-82
2022/03/20 03:55:44;;;;;;;27.33;12.63;;;3.60;99.90;;;;;;4987335;28;20301;-81
2022/03/20 03:58:12;;;;;;;22.57;12.20;;;3.60;99.90;;;;;;5006026;28;20200;-81
2022/03/20 04:00:41;;;;;;;23.53;12.27;;;3.60;99.90;;;;;;5000719;28;20687;-82
2022/03/20 04:03:08;;;;;;;23.40;11.90;;;3.50;99.90;;;;;;5005333;28;20199;-81
2022/03/20 04:05:35;;;;;;;24.27;11.37;;;3.50;99.90;;;;;;5005653;28;20206;-81
2022/03/20 04:08:05;;;;;;;21.97;12.43;;;3.50;99.90;;;;;;5002954;28;20314;-82
2022/03/20 04:10:33;;;;;;;22.70;12.00;;;3.50;99.90;;;;;;4986815;28;20273;-81
2022/03/20 04:13:00;;;;;;;23.03;12.20;;;3.50;99.90;;;;;;5002373;28;20210;-82
2022/03/20 04:15:27;;;;;;;25.03;12.20;;;3.50;99.90;;;;;;4992411;28;20265;-82
2022/03/20 04:17:54;;;;;;;23.67;13.30;;;3.50;99.90;;;;;;4991140;28;20217;-82
2022/03/20 04:20:21;;;;;;;23.43;12.00;;;3.50;99.90;;;;;;4988983;28;20199;-82
2022/03/20 04:25:39;;;;;;;23.27;11.80;;;3.50;99.90;;;;;;4971048;28;20653;-82
2022/03/20 04:28:07;;;;;;;25.13;12.47;;;3.40;99.90;;;;;;5004656;28;20297;-81
2022/03/20 04:30:35;;;;;;;22.47;12.47;;;3.50;99.90;;;;;;5005431;28;20223;-81
2022/03/20 04:33:02;;;;;;;23.37;12.17;;;3.40;99.90;;;;;;5008996;28;20203;-81
2022/03/20 04:35:29;;;;;;;26.83;13.70;;;3.40;99.90;;;;;;4993960;28;20992;-82
2022/03/20 04:38:01;;;;;;;27.53;13.70;;;3.40;99.90;;;;;;5005999;28;20292;-82
2022/03/20 04:40:28;;;;;;;27.77;14.13;;;3.40;99.90;;;;;;5003069;28;20557;-81
2022/03/20 04:42:55;;;;;;;22.17;12.53;;;3.30;99.90;;;;;;5005239;28;20294;-81
2022/03/20 04:45:22;;;;;;;25.57;13.60;;;3.30;99.90;;;;;;4996886;28;20311;-81
2022/03/20 04:59:07;;;;;;;29.70;13.93;;;3.20;99.90;;;;;;4967741;28;20702;-82
2022/03/20 05:01:36;;;;;;;25.23;12.83;;;3.10;99.90;;;;;;4984722;28;20227;-82
2022/03/20 05:04:04;;;;;;;27.83;14.37;;;3.10;99.90;;;;;;4990402;28;20291;-82
2022/03/20 05:06:31;;;;;;;24.47;12.43;;;3.10;99.90;;;;;;5009554;28;20250;-82
2022/03/20 05:13:19;;;;;;;32.10;14.73;;;3.00;99.90;;;;;;5002656;28;20245;-81
2022/03/20 05:14:30;;;;;;;24.50;14.23;;;3.00;99.90;;;;;;5006904;28;20627;-81
2022/03/20 05:17:05;;;;;;;23.73;13.67;;;3.00;99.90;;;;;;5001317;28;20316;-80
2022/03/20 05:19:34;;;;;;;24.80;13.87;;;3.00;99.90;;;;;;5007178;28;20737;-82
2022/03/20 05:22:04;;;;;;;29.17;14.60;;;3.00;99.90;;;;;;4992739;28;20437;-81
2022/03/20 05:24:33;;;;;;;24.23;14.17;;;3.00;99.90;;;;;;4991296;28;20265;-81
2022/03/20 05:27:00;;;;;;;24.70;14.03;;;3.00;99.90;;;;;;4989872;28;20742;-83
2022/03/20 05:29:27;;;;;;;27.13;13.73;;;2.90;99.90;;;;;;5003416;28;20325;-81
2022/03/20 05:31:54;;;;;;;27.77;13.83;;;3.00;99.90;;;;;;5004310;28;20225;-81
2022/03/20 05:34:21;;;;;;;26.70;15.07;;;3.00;99.90;;;;;;4993451;28;20299;-81
2022/03/20 05:36:49;;;;;;;29.93;14.37;;;3.10;99.90;;;;;;5005932;28;20592;-80
2022/03/20 05:39:16;;;;;;;30.93;14.60;;;3.10;99.90;;;;;;5005533;28;20206;-82
2022/03/20 05:41:45;;;;;;;29.10;15.03;;;3.10;99.90;;;;;;5006104;28;20354;-82
2022/03/20 05:44:17;;;;;;;30.60;14.90;;;3.10;99.90;;;;;;5001438;28;20938;-82
2022/03/20 05:46:51;;;;;;;25.23;14.00;;;3.20;99.90;;;;;;5006272;28;20265;-82
2022/03/20 05:49:19;;;;;;;28.20;15.17;;;3.20;99.90;;;;;;4990292;28;20253;-82
2022/03/20 05:51:47;;;;;;;29.60;15.23;;;3.30;99.90;;;;;;5005842;28;20341;-82
2022/03/20 05:54:15;;;;;;;30.30;15.60;;;3.30;99.90;;;;;;4990820;28;20229;-83
2022/03/20 05:59:28;;;;;;;26.77;14.40;;;3.50;99.90;;;;;;5002497;28;20206;-82
2022/03/20 06:01:56;;;;;;;27.20;15.20;;;3.50;99.90;;;;;;5005476;28;20223;-82
2022/03/20 06:04:23;;;;;;;27.27;14.77;;;3.60;99.90;;;;;;5003938;28;20247;-81
2022/03/20 06:06:50;;;;;;;26.63;14.73;;;3.60;99.90;;;;;;5006551;28;20775;-82
2022/03/20 06:09:17;;;;;;;27.93;15.43;;;3.70;99.90;;;;;;4995169;28;20321;-83
2022/03/20 06:11:44;;;;;;;25.47;14.83;;;3.70;99.90;;;;;;5005929;28;20222;-81
2022/03/20 06:14:11;;;;;;;26.73;15.90;;;3.70;99.90;;;;;;5004076;28;20272;-83
2022/03/20 06:16:38;;;;;;;30.63;15.10;;;3.80;99.90;;;;;;5005918;28;20692;-82
2022/03/20 06:19:06;;;;;;;27.30;14.57;;;3.80;99.90;;;;;;4990143;28;20808;-82
2022/03/20 06:21:34;;;;;;;30.17;16.07;;;3.90;99.90;;;;;;5006229;28;20687;-83
2022/03/20 06:24:01;;;;;;;27.27;14.87;;;4.00;99.90;;;;;;4988469;28;20223;-81
2022/03/20 06:26:27;;;;;;;28.70;14.87;;;4.00;99.90;;;;;;5006122;28;20606;-82
2022/03/20 06:28:54;;;;;;;27.23;14.20;;;4.10;99.90;;;;;;5004483;28;20223;-81
2022/03/20 06:31:22;;;;;;;29.13;16.00;;;4.10;99.90;;;;;;5002057;28;20224;-83
2022/03/20 06:33:58;;;;;;;29.00;15.50;;;4.10;99.90;;;;;;4989758;28;20801;-82
2022/03/20 06:36:25;;;;;;;25.30;15.07;;;4.20;99.90;;;;;;5004463;28;20296;-81
2022/03/20 06:38:52;;;;;;;27.40;14.90;;;4.20;99.90;;;;;;5004310;28;20320;-80
2022/03/20 06:41:19;;;;;;;25.80;14.77;;;4.30;99.90;;;;;;5002012;28;20212;-81
2022/03/20 06:43:46;;;;;;;27.97;16.13;;;4.40;99.90;;;;;;5002912;28;20221;-82
2022/03/20 06:46:12;;;;;;;27.97;15.83;;;4.40;99.90;;;;;;5005277;28;20225;-81
2022/03/20 06:48:50;;;;;;;27.33;16.03;;;4.40;99.90;;;;;;5007304;28;20335;-82
2022/03/20 06:51:17;;;;;;;27.73;15.30;;;4.50;99.90;;;;;;5002873;28;20211;-83
2022/03/20 06:53:44;;;;;;;26.33;14.63;;;4.50;99.90;;;;;;4990817;28;20227;-82
2022/03/20 06:56:11;;;;;;;26.13;14.93;;;4.60;99.90;;;;;;5007513;28;20291;-81
2022/03/20 06:58:39;;;;;;;26.20;15.40;;;4.60;99.90;;;;;;5003983;28;20230;-83
2022/03/20 07:01:08;;;;;;;26.83;15.00;;;4.60;99.90;;;;;;4990916;28;20265;-80
2022/03/20 07:03:35;;;;;;;28.07;16.03;;;4.90;99.90;;;;;;5001686;28;20200;-80
2022/03/20 07:06:03;;;;;;;26.23;14.67;;;5.40;99.90;;;;;;5004520;28;20213;-82
2022/03/20 07:08:29;;;;;;;25.07;13.97;;;5.80;99.90;;;;;;4989078;28;20244;-82
2022/03/20 07:10:56;;;;;;;30.87;15.77;;;6.10;99.90;;;;;;5000634;28;20206;-81
2022/03/20 07:16:13;;;;;;;25.20;15.17;;;6.70;99.90;;;;;;5003457;28;20282;-81
2022/03/20 07:18:40;;;;;;;23.33;13.93;;;7.10;99.90;;;;;;5006322;28;20208;-81
2022/03/20 07:21:08;;;;;;;29.00;15.83;;;7.50;99.90;;;;;;5003815;28;20636;-80
2022/03/20 07:23:36;;;;;;;24.70;14.23;;;7.80;99.90;;;;;;5001208;28;20210;-81
2022/03/20 07:31:34;;;;;;;27.10;15.47;;;7.90;99.90;;;;;;4998626;28;20230;-81
2022/03/20 07:34:01;;;;;;;27.97;15.00;;;7.90;99.90;;;;;;5006181;28;20297;-81
2022/03/20 07:36:28;;;;;;;25.60;15.60;;;7.80;99.90;;;;;;5004558;28;20736;-81
2022/03/20 07:38:55;;;;;;;24.53;15.20;;;7.60;99.90;;;;;;5005090;28;20299;-81
2022/03/20 07:41:22;;;;;;;28.87;16.23;;;7.60;99.90;;;;;;5004269;28;20295;-80
2022/03/20 07:43:50;;;;;;;26.07;15.50;;;7.50;99.90;;;;;;5000255;28;20213;-81
2022/03/20 07:46:16;;;;;;;25.90;15.07;;;7.50;99.90;;;;;;5011743;28;20313;-82
2022/03/20 07:48:43;;;;;;;26.93;15.87;;;7.70;99.90;;;;;;5007508;28;20229;-84
2022/03/20 07:51:10;;;;;;;30.57;15.80;;;7.70;99.90;;;;;;4992144;28;20217;-82
2022/03/20 07:53:37;;;;;;;27.20;15.07;;;8.00;99.90;;;;;;5008707;28;20305;-82
2022/03/20 07:56:04;;;;;;;22.53;14.83;;;8.20;99.90;;;;;;5001918;28;20213;-83
2022/03/20 07:58:30;;;;;;;27.33;15.93;;;8.10;99.90;;;;;;5007107;28;20505;-81
2022/03/20 08:00:57;;;;;;;26.77;15.87;;;8.10;99.90;;;;;;5008498;28;20281;-81
2022/03/20 08:03:24;;;;;;;29.80;16.93;;;7.90;99.90;;;;;;4989867;28;20576;-80
2022/03/20 08:05:51;;;;;;;25.00;15.20;;;7.80;99.90;;;;;;4986279;28;20643;-81
2022/03/20 08:08:18;;;;;;;28.17;14.97;;;7.90;99.90;;;;;;4990831;28;20718;-81
2022/03/20 08:10:45;;;;;;;28.50;15.53;;;8.00;99.90;;;;;;4997945;28;20218;-84
2022/03/20 08:13:12;;;;;;;26.63;15.60;;;8.00;99.90;;;;;;5008848;28;20231;-80
2022/03/20 08:15:39;;;;;;;26.80;15.43;;;8.10;99.90;;;;;;5011031;28;20247;-81
2022/03/20 08:18:07;;;;;;;24.93;14.77;;;8.40;99.90;;;;;;5012516;28;20204;-83
2022/03/20 08:20:35;;;;;;;26.80;16.27;;;8.70;99.90;;;;;;5006413;28;20677;-81
2022/03/20 08:23:03;;;;;;;27.83;16.03;;;8.80;99.90;;;;;;4992817;28;20277;-81
2022/03/20 08:25:31;;;;;;;25.73;14.63;;;8.90;99.90;;;;;;5000942;28;20566;-82
2022/03/20 08:27:58;;;;;;;26.30;16.23;;;8.90;99.90;;;;;;5008766;28;20242;-81
2022/03/20 08:30:25;;;;;;;27.63;15.97;;;8.50;99.90;;;;;;4990342;28;20241;-80
2022/03/20 08:32:53;;;;;;;26.33;16.27;;;8.30;99.90;;;;;;5016621;28;20618;-80
2022/03/20 08:35:20;;;;;;;33.70;16.00;;;8.10;99.90;;;;;;5002927;28;20828;-83
2022/03/20 08:37:49;;;;;;;30.20;15.70;;;7.90;99.90;;;;;;5006100;28;20218;-83
2022/03/20 08:40:19;;;;;;;28.97;17.60;;;8.00;99.90;;;;;;4992694;28;20218;-83
2022/03/20 08:42:48;;;;;;;27.73;16.17;;;8.30;99.90;;;;;;5003930;28;20281;-82
2022/03/20 08:45:17;;;;;;;28.00;17.13;;;8.60;99.90;;;;;;4994401;28;20219;-84
2022/03/20 08:47:44;;;;;;;30.07;16.47;;;9.10;99.90;;;;;;4994854;28;20546;-85
2022/03/20 08:50:14;;;;;;;27.23;16.60;;;9.20;99.90;;;;;;4994186;28;20304;-84
2022/03/20 08:52:45;;;;;;;29.77;18.57;;;9.60;99.90;;;;;;4991157;28;20236;-87
2022/03/20 08:55:13;;;;;;;32.63;17.23;;;9.50;99.90;;;;;;4985040;28;20220;-86
2022/03/20 08:57:42;;;;;;;28.50;16.43;;;9.50;99.90;;;;;;5006976;28;20283;-85
2022/03/20 09:00:10;;;;;;;28.30;18.60;;;9.60;99.90;;;;;;5005821;28;20210;-85
2022/03/20 09:02:38;;;;;;;30.30;18.93;;;9.30;99.80;;;;;;5004778;28;20690;-85
2022/03/20 09:05:05;;;;;;;27.43;16.80;;;9.30;99.90;;;;;;5002617;28;20302;-83
2022/03/20 09:07:32;;;;;;;27.87;16.37;;;9.40;99.90;;;;;;5004365;28;20210;-88
2022/03/20 09:09:59;;;;;;;30.10;16.43;;;9.40;99.90;;;;;;4999731;28;20669;-85
2022/03/20 09:12:26;;;;;;;28.30;17.67;;;9.40;99.90;;;;;;5004953;28;20289;-84
2022/03/20 09:14:53;;;;;;;29.60;17.87;;;9.40;99.50;;;;;;5003097;28;20213;-87
2022/03/20 09:20:05;;;;;;;32.40;17.33;;;9.10;99.90;;;;;;5007539;28;20655;-85
2022/03/20 09:22:34;;;;;;;31.53;19.10;;;8.80;99.70;;;;;;5008506;28;20286;-86
2022/03/20 09:25:01;;;;;;;30.47;18.27;;;8.70;99.90;;;;;;5009319;28;20312;-84
2022/03/20 09:27:28;;;;;;;29.13;17.40;;;8.50;99.90;;;;;;4993069;28;20199;-85
2022/03/20 09:29:55;;;;;;;30.53;18.20;;;8.30;99.90;;;;;;4994868;28;20237;-85
2022/03/20 09:32:22;;;;;;;34.77;19.00;;;8.20;99.90;;;;;;4991328;28;20224;-84
2022/03/20 09:34:49;;;;;;;31.07;18.23;;;8.00;99.90;;;;;;5007895;28;20324;-84
2022/03/20 09:37:16;;;;;;;27.13;17.23;;;8.10;99.90;;;;;;5002773;28;20224;-84
2022/03/20 09:39:43;;;;;;;33.67;19.07;;;8.10;99.90;;;;;;5001959;28;20674;-85
2022/03/20 09:42:10;;;;;;;29.83;17.80;;;8.20;99.90;;;;;;4995572;28;20208;-83
2022/03/20 09:44:40;;;;;;;29.90;18.73;;;8.30;99.90;;;;;;5005202;28;20686;-86
2022/03/20 09:47:11;;;;;;;34.23;18.20;;;8.50;99.90;;;;;;5009630;28;20215;-84
2022/03/20 09:49:39;;;;;;;32.45;21.00;;;8.70;99.90;;;;;;4988545;28;20464;-84
2022/03/20 09:52:07;;;;;;;29.93;18.43;;;9.10;99.60;;;;;;4989259;28;20543;-83
2022/03/20 09:54:34;;;;;;;32.37;19.10;;;9.10;99.70;;;;;;5005569;28;20282;-84
2022/03/20 09:57:06;;;;;;;34.27;19.77;;;9.00;99.50;;;;;;5003860;28;20314;-83
2022/03/20 09:59:34;;;;;;;32.77;19.23;;;9.10;99.60;;;;;;4990992;28;20227;-84
2022/03/20 10:02:08;;;;;;;29.43;19.00;;;9.00;99.00;;;;;;5008380;28;20636;-83
2022/03/20 10:04:55;;;;;;;34.97;19.30;;;9.10;98.80;;;;;;5007150;28;20203;-83
2022/03/20 10:07:29;;;;;;;33.37;19.40;;;9.10;98.50;;;;;;5002070;28;20538;-82
2022/03/20 10:10:08;;;;;;;35.63;18.93;;;9.30;98.50;;;;;;5003041;28;20708;-83
2022/03/20 10:12:38;;;;;;;33.93;19.60;;;9.40;98.00;;;;;;5001165;28;20249;-81
2022/03/20 10:15:09;;;;;;;32.00;18.53;;;9.30;97.90;;;;;;5004714;28;20223;-82
2022/03/20 10:17:39;;;;;;;34.13;19.53;;;9.20;98.20;;;;;;5004355;28;20210;-82
2022/03/20 10:20:13;;;;;;;33.90;18.80;;;9.20;98.20;;;;;;5004050;28;20637;-82
2022/03/20 10:22:41;;;;;;;36.60;19.63;;;9.40;98.20;;;;;;5007359;28;20301;-83
2022/03/20 10:25:11;;;;;;;33.50;19.37;;;9.60;98.10;;;;;;5003856;28;20209;-83
2022/03/20 10:27:39;;;;;;;34.83;19.30;;;9.70;97.90;;;;;;5004170;28;20692;-81
2022/03/20 10:30:09;;;;;;;34.83;19.63;;;9.60;97.60;;;;;;5003573;28;20231;-85
2022/03/20 10:32:47;;;;;;;34.10;19.70;;;9.60;97.40;;;;;;5005441;28;20297;-84
2022/03/20 10:35:14;;;;;;;32.77;18.77;;;9.70;97.60;;;;;;5003897;28;20224;-84
2022/03/20 10:37:49;;;;;;;30.17;18.80;;;9.90;97.50;;;;;;4996720;28;20753;-85
2022/03/20 10:40:27;;;;;;;33.80;20.37;;;10.00;97.40;;;;;;5004043;28;20205;-85
2022/03/20 10:43:14;;;;;;;34.97;20.33;;;10.10;96.80;;;;;;5004432;28;20370;-85
2022/03/20 10:45:51;;;;;;;36.33;20.23;;;10.10;96.00;;;;;;4991177;28;20233;-85
2022/03/20 10:48:28;;;;;;;30.63;19.73;;;9.90;96.60;;;;;;5009550;28;20206;-88
2022/03/20 10:50:56;;;;;;;34.77;19.40;;;9.80;96.20;;;;;;4997089;28;21024;-85
2022/03/20 10:53:23;;;;;;;33.17;19.37;;;9.90;96.60;;;;;;5006005;28;20275;-85
2022/03/20 10:55:56;;;;;;;32.80;18.60;;;9.80;96.70;;;;;;5005648;28;20217;-85
2022/03/20 10:58:26;;;;;;;33.83;20.03;;;9.80;96.50;;;;;;5005441;28;20245;-86
2022/03/20 11:00:53;;;;;;;33.73;19.00;;;9.90;96.50;;;;;;5013222;28;20240;-84
2022/03/20 11:03:22;;;;;;;32.83;19.47;;;9.80;96.50;;;;;;5008285;28;20294;-86
2022/03/20 11:05:50;;;;;;;33.93;20.70;;;9.80;96.30;;;;;;5009211;28;20211;-86
2022/03/20 11:08:19;;;;;;;38.17;20.63;;;9.70;96.10;;;;;;4991598;28;20692;-87
2022/03/20 11:10:48;;;;;;;35.10;20.77;;;9.70;96.30;;;;;;5008005;28;20672;-87
2022/03/20 11:13:17;;;;;;;36.03;20.63;;;9.70;96.20;;;;;;5002568;28;20276;-87
2022/03/20 11:15:45;;;;;;;36.73;19.53;;;9.80;96.40;;;;;;5015541;28;20278;-86
2022/03/20 11:18:14;;;;;;;34.27;20.63;;;9.90;96.70;;;;;;5002596;28;20635;-84
2022/03/20 11:20:45;;;;;;;34.30;20.67;;;10.00;96.80;;;;;;5014684;28;20341;-85
2022/03/20 11:23:14;;;;;;;34.47;19.43;;;10.00;96.60;;;;;;4994316;28;20356;-85
2022/03/20 11:25:45;;;;;;;35.73;21.23;;;10.10;96.70;;;;;;5004743;28;20673;-85
2022/03/20 11:28:13;;;;;;;34.50;20.57;;;10.10;96.30;;;;;;4984308;28;20547;-86
2022/03/20 11:30:41;;;;;;;37.57;20.80;;;10.10;96.30;;;;;;5002531;28;20262;-85
2022/03/20 11:33:09;;;;;;;37.43;20.27;;;10.00;96.10;;;;;;5005456;28;20598;-83
2022/03/20 11:35:37;;;;;;;37.07;20.50;;;10.00;96.20;;;;;;5001695;28;20367;-85
2022/03/20 11:38:35;;;;;;;36.47;20.70;;;9.80;96.20;;;;;;5000910;28;20241;-85
2022/03/20 11:41:14;;;;;;;38.80;21.03;;;9.90;96.30;;;;;;4991418;28;20609;-86
2022/03/20 11:43:44;;;;;;;36.27;20.27;;;9.80;96.40;;;;;;5003830;28;20943;-86
2022/03/20 11:46:27;;;;;;;36.67;20.30;;;9.70;96.50;;;;;;4990395;28;20781;-87
2022/03/20 11:49:13;;;;;;;36.30;21.07;;;9.70;96.70;;;;;;5004862;28;20639;-85
2022/03/20 11:51:59;;;;;;;37.83;20.97;;;9.60;96.70;;;;;;5003027;28;20230;-85
2022/03/20 11:54:49;;;;;;;31.63;19.70;;;9.60;96.70;;;;;;5000059;28;20512;-85
2022/03/20 11:57:31;;;;;;;32.63;20.13;;;9.60;97.00;;;;;;5000812;28;20629;-83
2022/03/20 12:00:10;;;;;;;36.97;20.73;;;9.70;97.10;;;;;;4992670;28;20202;-84
2022/03/20 12:03:00;;;;;;;36.27;20.63;;;9.60;97.20;;;;;;5004694;28;20730;-88
2022/03/20 12:05:50;;;;;;;38.30;22.07;;;9.70;97.30;;;;;;4990295;28;20221;-86
2022/03/20 12:08:38;;;;;;;34.93;21.03;;;9.70;97.20;;;;;;4982660;28;20215;-86
2022/03/20 12:11:23;;;;;;;35.77;21.40;;;9.70;97.00;;;;;;4996730;28;20245;-86
2022/03/20 12:14:14;;;;;;;34.60;19.90;;;9.80;97.20;;;;;;5002445;28;20305;-87
2022/03/20 12:16:47;;;;;;;39.33;21.93;;;9.80;97.20;;;;;;5005717;28;20346;-85
2022/03/20 12:19:34;;;;;;;35.73;21.53;;;9.90;97.30;;;;;;5003371;28;20298;-85
2022/03/20 12:22:04;;;;;;;38.13;21.03;;;10.00;97.10;;;;;;5005851;28;20745;-85
2022/03/20 12:24:45;;;;;;;37.70;20.30;;;10.00;97.00;;;;;;5000881;28;20211;-84
2022/03/20 12:27:23;;;;;;;31.63;19.40;;;10.00;96.90;;;;;;5005088;28;20316;-88
2022/03/20 12:30:03;;;;;;;34.37;21.30;;;10.10;97.00;;;;;;5007335;28;20606;-85
2022/03/20 12:32:48;;;;;;;35.40;20.67;;;10.10;96.70;;;;;;5006218;28;20292;-87
2022/03/20 12:35:29;;;;;;;35.83;20.87;;;10.00;96.80;;;;;;4999168;28;20234;-85
2022/03/20 12:37:58;;;;;;;36.80;21.17;;;10.10;96.70;;;;;;4984851;28;20983;-85
2022/03/20 12:40:30;;;;;;;36.50;22.37;;;10.10;96.80;;;;;;4984223;28;20358;-84
2022/03/20 12:43:20;;;;;;;38.23;20.97;;;10.10;96.80;;;;;;4983709;28;20237;-83
2022/03/20 12:45:55;;;;;;;40.73;21.67;;;10.20;96.90;;;;;;5005400;28;20224;-84
2022/03/20 12:48:22;;;;;;;37.27;21.70;;;10.20;96.90;;;;;;4998143;28;20208;-84
2022/03/20 12:50:57;;;;;;;40.33;22.50;;;10.30;96.90;;;;;;4986768;28;20235;-82
2022/03/20 12:53:24;;;;;;;36.33;21.77;;;10.30;96.80;;;;;;4985151;28;20668;-85
2022/03/20 12:55:59;;;;;;;36.50;20.83;;;10.40;96.90;;;;;;4998601;28;20212;-83
2022/03/20 12:58:27;;;;;;;42.17;22.63;;;10.40;96.80;;;;;;5008410;28;20336;-84
2022/03/20 13:00:55;;;;;;;38.70;22.17;;;10.50;96.70;;;;;;5006232;28;20231;-84
2022/03/20 13:03:25;;;;;;;35.53;21.37;;;10.50;96.80;;;;;;4990944;28;20204;-83
2022/03/20 13:05:58;;;;;;;34.23;21.57;;;10.70;96.80;;;;;;5010309;28;20208;-85
2022/03/20 13:08:30;;;;;;;40.67;22.03;;;10.60;96.80;;;;;;5005828;28;20205;-86
2022/03/20 13:11:03;;;;;;;39.50;22.80;;;10.60;96.70;;;;;;5004203;28;20240;-84
2022/03/20 13:13:36;;;;;;;38.90;21.20;;;10.60;96.80;;;;;;4988951;28;20209;-85
2022/03/20 13:16:05;;;;;;;38.10;22.30;;;10.50;96.80;;;;;;4990813;28;20470;-84
2022/03/20 13:18:33;;;;;;;40.90;21.03;;;10.50;96.80;;;;;;4988424;28;20639;-85
2022/03/20 13:21:07;;;;;;;39.57;22.40;;;10.50;96.80;;;;;;5004887;28;20212;-83
2022/03/20 13:23:35;;;;;;;41.40;21.80;;;10.50;96.90;;;;;;4991794;28;20604;-84